createdAt,value
2022-10-28T00:01:21.823Z,13.70
2022-10-28T00:03:58.338Z,13.70
2022-10-28T00:06:34.585Z,13.60
2022-10-28T00:09:04.540Z,13.50
2022-10-28T00:11:34.859Z,13.50
2022-10-28T00:14:05.687Z,13.50
2022-10-28T00:16:35.256Z,13.50
2022-10-28T00:19:04.492Z,13.40
2022-10-28T00:21:35.422Z,13.50
2022-10-28T00:24:02.568Z,13.50
2022-10-28T00:26:31.715Z,13.50
2022-10-28T00:29:05.448Z,13.50
2022-10-28T00:31:33.977Z,13.50
2022-10-28T00:34:06.002Z,13.50
2022-10-28T00:36:37.084Z,13.50
2022-10-28T00:39:14.151Z,13.60
2022-10-28T00:41:46.518Z,13.60
2022-10-28T00:44:57.374Z,13.60
2022-10-28T00:47:56.560Z,13.70
2022-10-28T00:50:32.713Z,13.70
2022-10-28T00:53:14.747Z,13.70
2022-10-28T00:55:43.564Z,13.80
2022-10-28T00:58:12.118Z,13.80
2022-10-28T01:00:39.129Z,13.90
2022-10-28T01:03:06.357Z,13.90
2022-10-28T01:05:38.408Z,14.00
2022-10-28T01:08:06.371Z,14.10
2022-10-28T01:10:47.219Z,14.10
2022-10-28T01:13:32.416Z,14.10
2022-10-28T01:16:15.601Z,14.20
2022-10-28T01:19:45.353Z,14.10
2022-10-28T01:22:25.231Z,14.10
2022-10-28T01:25:34.577Z,14.10
2022-10-28T01:28:20.490Z,14.00
2022-10-28T01:31:29.789Z,14.10
2022-10-28T01:34:32.305Z,14.10
2022-10-28T01:38:02.558Z,14.00
2022-10-28T01:40:51.745Z,13.90
2022-10-28T01:43:28.077Z,13.90
2022-10-28T01:46:20.547Z,13.80
2022-10-28T01:49:11.410Z,13.70
2022-10-28T01:51:51.162Z,13.70
2022-10-28T01:54:22.928Z,13.70
2022-10-28T01:56:52.838Z,13.80
2022-10-28T01:59:27.132Z,13.80
2022-10-28T02:01:55.712Z,13.80
2022-10-28T02:04:22.888Z,13.90
2022-10-28T02:06:54.793Z,13.90
2022-10-28T02:09:47.321Z,14.00
2022-10-28T02:12:28.893Z,14.10
2022-10-28T02:15:21.086Z,14.10
2022-10-28T02:18:01.325Z,14.10
2022-10-28T02:21:01.961Z,14.10
2022-10-28T02:23:50.074Z,14.10
2022-10-28T02:26:38.664Z,14.10
2022-10-28T02:29:19.756Z,14.10
2022-10-28T02:31:54.411Z,14.00
2022-10-28T02:34:31.958Z,14.00
2022-10-28T02:37:02.827Z,14.10
2022-10-28T02:39:46.743Z,14.10
2022-10-28T02:42:27.053Z,14.00
2022-10-28T02:45:00.385Z,13.90
2022-10-28T02:47:33.648Z,13.80
2022-10-28T02:50:11.019Z,13.80
2022-10-28T02:52:40.029Z,13.80
2022-10-28T02:55:07.457Z,13.70
2022-10-28T02:57:42.263Z,13.70
2022-10-28T03:00:16.363Z,13.60
2022-10-28T03:02:43.443Z,13.50
2022-10-28T03:05:10.895Z,13.40
2022-10-28T03:07:38.162Z,13.40
2022-10-28T03:10:06.189Z,13.30
2022-10-28T03:12:33.572Z,13.30
2022-10-28T03:15:01.686Z,13.20
2022-10-28T03:17:29.079Z,13.20
2022-10-28T03:19:56.243Z,13.10
2022-10-28T03:22:23.341Z,13.10
2022-10-28T03:24:50.504Z,13.20
2022-10-28T03:27:17.418Z,13.10
2022-10-28T03:29:46.100Z,13.00
2022-10-28T03:32:13.827Z,13.00
2022-10-28T03:34:40.854Z,13.00
2022-10-28T03:37:07.972Z,12.90
2022-10-28T03:39:34.909Z,13.00
2022-10-28T03:42:02.123Z,13.00
2022-10-28T03:44:29.154Z,13.00
2022-10-28T03:46:56.194Z,12.90
2022-10-28T03:49:23.213Z,12.90
2022-10-28T03:51:50.189Z,12.90
2022-10-28T03:54:17.243Z,12.80
2022-10-28T03:56:44.189Z,12.80
2022-10-28T03:59:13.194Z,12.80
2022-10-28T04:01:42.261Z,12.80
2022-10-28T04:04:09.415Z,12.80
2022-10-28T04:06:36.482Z,12.70
2022-10-28T04:09:03.573Z,12.80
2022-10-28T04:11:30.757Z,12.80
2022-10-28T04:13:57.941Z,12.80
2022-10-28T04:16:24.979Z,12.80
2022-10-28T04:18:52.047Z,12.70
2022-10-28T04:21:19.104Z,12.90
2022-10-28T04:23:46.078Z,12.90
2022-10-28T04:26:14.130Z,13.00
2022-10-28T04:28:41.454Z,13.10
2022-10-28T04:31:10.036Z,13.20
2022-10-28T04:33:37.201Z,13.10
2022-10-28T04:36:04.384Z,13.10
2022-10-28T04:38:31.362Z,13.20
2022-10-28T04:40:58.606Z,13.10
2022-10-28T04:43:25.751Z,13.10
2022-10-28T04:45:52.897Z,13.10
2022-10-28T04:48:20.425Z,13.20
2022-10-28T04:50:47.525Z,13.20
2022-10-28T04:53:14.666Z,13.20
2022-10-28T04:55:41.683Z,13.30
2022-10-28T04:58:10.056Z,13.20
2022-10-28T05:00:37.296Z,13.20
2022-10-28T05:03:04.659Z,13.20
2022-10-28T05:05:31.979Z,13.30
2022-10-28T05:07:59.144Z,13.40
2022-10-28T05:10:26.453Z,13.40
2022-10-28T05:12:53.403Z,13.40
2022-10-28T05:15:20.412Z,13.40
2022-10-28T05:17:48.070Z,13.40
2022-10-28T05:20:17.485Z,13.30
2022-10-28T05:22:53.724Z,13.30
2022-10-28T05:25:22.291Z,13.30
2022-10-28T05:27:50.164Z,13.30
2022-10-28T05:30:18.275Z,13.10
2022-10-28T05:32:46.219Z,13.10
2022-10-28T05:35:14.524Z,13.00
2022-10-28T05:37:41.583Z,12.90
2022-10-28T05:40:09.737Z,12.80
2022-10-28T05:42:43.403Z,12.80
2022-10-28T05:45:11.273Z,12.70
2022-10-28T05:47:44.326Z,12.60
2022-10-28T05:50:13.049Z,12.60
2022-10-28T05:52:40.069Z,12.80
2022-10-28T05:55:07.423Z,12.70
2022-10-28T05:57:35.664Z,12.80
2022-10-28T06:00:04.468Z,12.80
2022-10-28T06:02:40.941Z,12.70
2022-10-28T06:05:09.430Z,12.60
2022-10-28T06:07:38.179Z,12.60
2022-10-28T06:10:07.572Z,12.60
2022-10-28T06:15:06.401Z,12.80
2022-10-28T06:17:33.326Z,12.80
2022-10-28T06:20:01.071Z,12.80
2022-10-28T06:22:28.176Z,12.80
2022-10-28T06:24:55.221Z,12.80
2022-10-28T06:27:22.334Z,12.90
2022-10-28T06:29:49.438Z,12.90
2022-10-28T06:32:16.626Z,12.90
2022-10-28T06:34:43.566Z,12.90
2022-10-28T06:37:10.618Z,12.90
2022-10-28T06:39:38.313Z,12.90
2022-10-28T06:42:05.429Z,12.90
2022-10-28T06:44:32.429Z,12.90
2022-10-28T06:47:01.038Z,12.90
2022-10-28T06:49:28.818Z,12.90
2022-10-28T06:51:55.955Z,13.00
2022-10-28T06:54:23.039Z,13.10
2022-10-28T06:56:50.113Z,13.10
2022-10-28T06:59:17.101Z,13.10
2022-10-28T07:01:44.324Z,13.20
2022-10-28T07:04:13.300Z,13.20
2022-10-28T07:06:41.208Z,13.30
2022-10-28T07:09:10.797Z,13.30
2022-10-28T07:11:37.838Z,13.30
2022-10-28T07:14:04.888Z,13.40
2022-10-28T07:16:32.007Z,13.40
2022-10-28T07:18:59.133Z,13.50
2022-10-28T07:21:28.505Z,13.60
2022-10-28T07:23:58.753Z,13.60
2022-10-28T07:26:26.470Z,13.70
2022-10-28T07:28:53.718Z,13.70
2022-10-28T07:31:21.052Z,13.80
2022-10-28T07:33:54.810Z,13.90
2022-10-28T07:36:22.076Z,14.00
2022-10-28T07:38:51.774Z,14.00
2022-10-28T07:41:21.265Z,14.10
2022-10-28T07:43:50.248Z,14.20
2022-10-28T07:46:19.021Z,14.20
2022-10-28T07:48:46.667Z,14.30
2022-10-28T07:51:15.416Z,14.40
2022-10-28T07:53:42.863Z,14.50
2022-10-28T07:56:15.222Z,14.50
2022-10-28T07:58:44.506Z,14.60
2022-10-28T08:01:15.809Z,14.70
2022-10-28T08:03:43.227Z,14.80
2022-10-28T08:06:17.950Z,14.90
2022-10-28T08:08:47.588Z,14.90
2022-10-28T08:11:16.794Z,15.00
2022-10-28T08:13:43.987Z,15.10
2022-10-28T08:16:11.749Z,15.20
2022-10-28T08:18:39.537Z,15.20
2022-10-28T08:21:09.483Z,15.30
2022-10-28T08:23:38.299Z,15.40
2022-10-28T08:26:05.967Z,15.40
2022-10-28T08:28:33.029Z,15.60
2022-10-28T08:31:09.777Z,15.60
2022-10-28T08:33:44.337Z,15.70
2022-10-28T08:36:16.559Z,15.90
2022-10-28T08:38:45.915Z,16.00
2022-10-28T08:41:55.398Z,16.10
2022-10-28T08:44:33.561Z,16.20
2022-10-28T08:47:19.701Z,16.30
2022-10-28T08:49:51.216Z,16.40
2022-10-28T08:52:35.173Z,16.60
2022-10-28T08:55:15.676Z,16.70
2022-10-28T08:58:01.006Z,16.90
2022-10-28T09:00:32.368Z,17.10
2022-10-28T09:03:11.259Z,17.20
2022-10-28T09:05:50.501Z,17.50
2022-10-28T09:08:24.710Z,17.60
2022-10-28T09:11:08.877Z,17.70
2022-10-28T09:14:03.439Z,17.80
2022-10-28T09:16:33.278Z,17.80
2022-10-28T09:19:31.630Z,17.90
2022-10-28T09:22:29.340Z,17.90
2022-10-28T09:25:04.750Z,17.90
2022-10-28T09:27:44.764Z,18.00
2022-10-28T09:30:39.997Z,18.00
2022-10-28T09:33:28.577Z,18.10
2022-10-28T09:35:57.378Z,18.10
2022-10-28T09:38:29.659Z,18.20
2022-10-28T09:41:02.305Z,18.20
2022-10-28T09:43:37.993Z,18.20
2022-10-28T09:46:14.379Z,18.30
2022-10-28T09:49:08.718Z,18.30
2022-10-28T09:51:47.707Z,18.30
2022-10-28T09:54:14.828Z,18.40
2022-10-28T09:56:42.197Z,18.40
2022-10-28T09:59:13.984Z,18.30
2022-10-28T10:01:43.157Z,18.30
2022-10-28T10:04:31.407Z,18.30
2022-10-28T10:07:14.963Z,18.30
2022-10-28T10:09:44.494Z,18.30
2022-10-28T10:12:13.381Z,18.30
2022-10-28T10:14:51.042Z,18.40
2022-10-28T10:17:35.923Z,18.40
2022-10-28T10:20:14.537Z,18.50
2022-10-28T10:22:45.901Z,18.50
2022-10-28T10:25:19.932Z,18.60
2022-10-28T10:28:02.911Z,18.80
2022-10-28T10:30:41.138Z,18.80
2022-10-28T10:33:20.618Z,18.90
2022-10-28T10:36:13.410Z,19.00
2022-10-28T10:38:51.181Z,19.10
2022-10-28T10:41:44.477Z,19.10
2022-10-28T10:44:20.798Z,19.20
2022-10-28T10:47:08.062Z,19.30
2022-10-28T10:49:36.062Z,19.30
2022-10-28T10:52:08.254Z,19.30
2022-10-28T10:54:37.533Z,19.30
2022-10-28T10:57:17.796Z,19.30
2022-10-28T10:59:48.713Z,19.40
2022-10-28T11:02:40.455Z,19.40
2022-10-28T11:05:10.056Z,19.40
2022-10-28T11:07:40.484Z,19.40
2022-10-28T11:10:25.502Z,19.50
2022-10-28T11:12:58.871Z,19.60
2022-10-28T11:15:31.332Z,19.70
2022-10-28T11:18:20.764Z,20.00
2022-10-28T11:21:16.187Z,20.30
2022-10-28T11:23:58.149Z,20.40
2022-10-28T11:26:25.989Z,20.50
2022-10-28T11:29:09.888Z,20.60
2022-10-28T11:31:50.296Z,20.70
2022-10-28T11:34:29.161Z,20.80
2022-10-28T11:37:30.472Z,20.80
2022-10-28T11:40:38.474Z,20.70
2022-10-28T11:43:35.245Z,20.70
2022-10-28T11:46:02.268Z,20.70
2022-10-28T11:48:46.477Z,20.70
2022-10-28T11:51:19.173Z,20.80
2022-10-28T11:54:04.813Z,20.90
2022-10-28T11:56:39.882Z,20.90
2022-10-28T11:59:21.839Z,21.10
2022-10-28T12:02:45.359Z,21.10
2022-10-28T12:06:16.199Z,21.10
2022-10-28T12:08:43.237Z,21.10
2022-10-28T12:11:35.790Z,21.10
2022-10-28T12:14:45.755Z,21.10
2022-10-28T12:17:35.229Z,21.10
2022-10-28T12:20:25.244Z,21.00
2022-10-28T12:22:57.073Z,21.00
2022-10-28T12:25:32.786Z,21.00
2022-10-28T12:28:18.697Z,21.00
2022-10-28T12:30:48.235Z,21.00
2022-10-28T12:33:21.130Z,21.00
2022-10-28T12:36:10.427Z,21.00
2022-10-28T12:38:52.129Z,21.00
2022-10-28T12:41:27.094Z,21.00
2022-10-28T12:44:10.032Z,21.10
2022-10-28T12:47:20.517Z,21.10
2022-10-28T12:50:27.897Z,21.10
2022-10-28T12:53:28.796Z,21.10
2022-10-28T12:56:02.194Z,21.00
2022-10-28T12:58:55.576Z,21.00
2022-10-28T13:01:27.594Z,21.00
2022-10-28T13:03:55.044Z,20.90
2022-10-28T13:07:02.545Z,20.90
2022-10-28T13:09:58.613Z,20.90
2022-10-28T13:12:56.724Z,20.90
2022-10-28T13:15:53.737Z,20.90
2022-10-28T13:18:25.819Z,20.90
2022-10-28T13:21:24.066Z,20.90
2022-10-28T13:24:01.023Z,20.90
2022-10-28T13:26:31.626Z,21.00
2022-10-28T13:29:07.309Z,21.00
2022-10-28T13:31:44.341Z,21.10
2022-10-28T13:34:15.437Z,21.20
2022-10-28T13:37:03.392Z,21.30
2022-10-28T13:39:33.013Z,21.30
2022-10-28T13:42:15.961Z,21.30
2022-10-28T13:45:03.500Z,21.30
2022-10-28T13:47:37.698Z,21.20
2022-10-28T13:50:08.464Z,21.10
2022-10-28T13:52:41.498Z,21.00
2022-10-28T13:55:41.524Z,20.90
2022-10-28T13:58:37.922Z,20.80
2022-10-28T14:01:56.489Z,20.70
2022-10-28T14:04:38.053Z,20.70
2022-10-28T14:07:11.107Z,20.70
2022-10-28T14:09:41.288Z,20.60
2022-10-28T14:12:23.325Z,20.60
2022-10-28T14:15:19.937Z,20.60
2022-10-28T14:18:05.172Z,20.50
2022-10-28T14:20:45.898Z,20.40
2022-10-28T14:23:21.917Z,20.30
2022-10-28T14:25:51.786Z,20.20
2022-10-28T14:28:28.043Z,20.20
2022-10-28T14:31:12.985Z,20.10
2022-10-28T14:33:43.117Z,20.00
2022-10-28T14:36:19.340Z,20.00
2022-10-28T14:39:33.639Z,20.00
2022-10-28T14:42:22.799Z,20.00
2022-10-28T14:45:52.139Z,19.90
2022-10-28T14:48:46.392Z,19.90
2022-10-28T14:51:35.935Z,19.80
2022-10-28T14:54:09.563Z,19.80
2022-10-28T14:56:37.369Z,19.70
2022-10-28T14:59:43.194Z,19.70
2022-10-28T15:02:24.815Z,19.70
2022-10-28T15:05:21.293Z,19.70
2022-10-28T15:07:49.066Z,19.60
2022-10-28T15:10:31.858Z,19.60
2022-10-28T15:13:00.244Z,19.50
2022-10-28T15:15:30.724Z,19.50
2022-10-28T15:18:00.460Z,19.50
2022-10-28T15:20:31.579Z,19.40
2022-10-28T15:23:21.393Z,19.40
2022-10-28T15:26:16.282Z,19.30
2022-10-28T15:28:43.718Z,19.30
2022-10-28T15:31:10.906Z,19.20
2022-10-28T15:33:40.866Z,19.10
2022-10-28T15:36:21.641Z,19.10
2022-10-28T15:39:10.191Z,19.00
2022-10-28T15:41:49.528Z,18.90
2022-10-28T15:44:37.185Z,18.80
2022-10-28T15:47:28.275Z,18.80
2022-10-28T15:50:15.508Z,18.70
2022-10-28T15:52:53.486Z,18.60
2022-10-28T15:55:41.021Z,18.60
2022-10-28T15:58:19.239Z,18.50
2022-10-28T16:00:55.213Z,18.50
2022-10-28T16:03:46.900Z,18.40
2022-10-28T16:06:41.761Z,18.40
2022-10-28T16:09:32.630Z,18.40
2022-10-28T16:12:04.918Z,18.30
2022-10-28T16:14:47.328Z,18.20
2022-10-28T16:17:20.207Z,18.20
2022-10-28T16:19:51.418Z,18.10
2022-10-28T16:22:19.244Z,18.10
2022-10-28T16:24:46.625Z,18.10
2022-10-28T16:27:25.459Z,18.10
2022-10-28T16:29:52.962Z,18.10
2022-10-28T16:32:35.458Z,18.10
2022-10-28T16:35:04.150Z,18.00
2022-10-28T16:37:34.431Z,18.00
2022-10-28T16:40:01.673Z,18.10
2022-10-28T16:42:28.697Z,18.00
2022-10-28T16:44:55.731Z,18.00
2022-10-28T16:47:26.582Z,18.00
2022-10-28T16:49:57.302Z,18.00
2022-10-28T16:52:29.951Z,18.00
2022-10-28T16:54:57.829Z,17.90
2022-10-28T16:57:25.762Z,17.90
2022-10-28T16:59:53.401Z,17.90
2022-10-28T17:02:31.399Z,17.90
2022-10-28T17:04:59.544Z,17.90
2022-10-28T17:07:28.099Z,17.90
2022-10-28T17:09:55.244Z,17.90
2022-10-28T17:12:26.385Z,17.80
2022-10-28T17:14:53.507Z,17.80
2022-10-28T17:17:20.627Z,17.80
2022-10-28T17:19:47.731Z,17.70
2022-10-28T17:22:14.747Z,17.70
2022-10-28T17:24:41.860Z,17.70
2022-10-28T17:27:09.116Z,17.60
2022-10-28T17:29:36.325Z,17.60
2022-10-28T17:32:03.640Z,17.60
2022-10-28T17:34:30.766Z,17.50
2022-10-28T17:36:57.896Z,17.50
2022-10-28T17:39:26.420Z,17.60
2022-10-28T17:41:54.230Z,17.60
2022-10-28T17:44:21.864Z,17.60
2022-10-28T17:46:49.784Z,17.60
2022-10-28T17:49:17.452Z,17.50
2022-10-28T17:51:44.834Z,17.50
2022-10-28T17:54:11.849Z,17.40
2022-10-28T17:56:41.791Z,17.40
2022-10-28T17:59:09.337Z,17.40
2022-10-28T18:01:37.011Z,17.40
2022-10-28T18:04:05.418Z,17.30
2022-10-28T18:06:32.449Z,17.30
2022-10-28T18:08:59.451Z,17.30
2022-10-28T18:11:27.471Z,17.20
2022-10-28T18:13:56.399Z,17.20
2022-10-28T18:16:28.181Z,17.20
2022-10-28T18:18:56.048Z,17.10
2022-10-28T18:21:24.544Z,17.10
2022-10-28T18:24:03.394Z,17.00
2022-10-28T18:26:36.488Z,16.90
2022-10-28T18:29:05.846Z,16.90
2022-10-28T18:31:33.772Z,16.90
2022-10-28T18:34:02.020Z,16.80
2022-10-28T18:36:34.304Z,16.80
2022-10-28T18:39:04.506Z,16.70
2022-10-28T18:41:32.731Z,16.70
2022-10-28T18:44:02.419Z,16.70
2022-10-28T18:46:32.503Z,16.60
2022-10-28T18:51:27.785Z,16.60
2022-10-28T18:53:56.503Z,16.50
2022-10-28T18:56:30.984Z,16.50
2022-10-28T18:59:02.332Z,16.50
2022-10-28T19:01:31.058Z,16.50
2022-10-28T19:04:04.177Z,16.40
2022-10-28T19:06:39.742Z,16.40
2022-10-28T19:09:07.554Z,16.40
2022-10-28T19:11:35.051Z,16.40
2022-10-28T19:14:05.726Z,16.30
2022-10-28T19:16:36.344Z,16.30
2022-10-28T19:19:07.471Z,16.20
2022-10-28T19:21:34.958Z,16.20
2022-10-28T19:24:02.426Z,16.10
2022-10-28T19:26:31.788Z,16.10
2022-10-28T19:28:58.859Z,16.10
2022-10-28T19:31:27.463Z,16.10
2022-10-28T19:33:55.200Z,16.00
2022-10-28T19:36:28.202Z,15.90
2022-10-28T19:38:56.774Z,15.90
2022-10-28T19:41:32.914Z,15.80
2022-10-28T19:44:03.909Z,15.80
2022-10-28T19:46:34.112Z,15.80
2022-10-28T19:49:05.151Z,15.80
2022-10-28T19:51:40.066Z,15.80
2022-10-28T19:54:12.443Z,15.80
2022-10-28T19:56:40.174Z,15.80
2022-10-28T19:59:07.483Z,15.70
2022-10-28T20:01:38.172Z,15.70
2022-10-28T20:04:06.840Z,15.70
2022-10-28T20:06:37.198Z,15.70
2022-10-28T20:09:05.634Z,15.60
2022-10-28T20:11:38.065Z,15.60
2022-10-28T20:14:09.844Z,15.70
2022-10-28T20:16:37.416Z,15.60
2022-10-28T20:19:05.301Z,15.60
2022-10-28T20:21:33.846Z,15.50
2022-10-28T20:24:01.412Z,15.50
2022-10-28T20:26:32.406Z,15.40
2022-10-28T20:29:02.867Z,15.40
2022-10-28T20:31:31.413Z,15.40
2022-10-28T20:34:01.561Z,15.30
2022-10-28T20:36:54.483Z,15.30
2022-10-28T20:39:22.101Z,15.30
2022-10-28T20:41:51.227Z,15.20
2022-10-28T20:44:18.402Z,15.20
2022-10-28T20:46:47.772Z,15.10
2022-10-28T20:49:15.302Z,15.00
2022-10-28T20:51:42.745Z,15.00
2022-10-28T20:54:09.822Z,15.00
2022-10-28T20:56:40.352Z,15.00
2022-10-28T20:59:07.977Z,14.90
2022-10-28T21:01:40.822Z,14.90
2022-10-28T21:04:10.975Z,14.80
2022-10-28T21:06:38.854Z,14.80
2022-10-28T21:09:06.398Z,14.80
2022-10-28T21:11:33.402Z,14.70
2022-10-28T21:14:01.907Z,14.70
2022-10-28T21:16:30.399Z,14.60
2022-10-28T21:18:59.225Z,14.60
2022-10-28T21:21:26.842Z,14.50
2022-10-28T21:23:54.332Z,14.50
2022-10-28T21:26:22.126Z,14.40
2022-10-28T21:28:51.766Z,14.30
2022-10-28T21:31:20.450Z,14.30
2022-10-28T21:36:21.563Z,14.10
2022-10-28T21:38:48.655Z,14.00
2022-10-28T21:41:20.201Z,14.00
2022-10-28T21:43:49.843Z,13.90
2022-10-28T21:46:18.419Z,13.90
2022-10-28T21:48:45.554Z,13.80
2022-10-28T21:51:15.397Z,13.80
2022-10-28T21:53:44.237Z,13.80
2022-10-28T21:56:19.929Z,13.70
2022-10-28T21:58:49.367Z,13.60
2022-10-28T22:01:20.181Z,13.60
2022-10-28T22:03:47.492Z,13.60
2022-10-28T22:06:15.308Z,13.50
2022-10-28T22:08:42.815Z,13.40
2022-10-28T22:11:16.496Z,13.30
2022-10-28T22:13:44.404Z,13.40
2022-10-28T22:16:14.918Z,13.40
2022-10-28T22:18:42.347Z,13.30
2022-10-28T22:21:22.027Z,13.20
2022-10-28T22:23:49.817Z,13.20
2022-10-28T22:26:26.538Z,13.10
2022-10-28T22:28:53.608Z,13.10
2022-10-28T22:31:24.512Z,13.00
2022-10-28T22:33:52.036Z,13.00
2022-10-28T22:36:23.080Z,12.90
2022-10-28T22:38:50.912Z,13.00
2022-10-28T22:41:29.798Z,13.00
2022-10-28T22:44:00.196Z,12.90
2022-10-28T22:46:32.161Z,12.90
2022-10-28T22:48:59.708Z,12.70
2022-10-28T22:51:26.795Z,12.70
2022-10-28T22:53:53.825Z,12.60
2022-10-28T22:56:23.768Z,12.60
2022-10-28T22:58:57.601Z,12.60
2022-10-28T23:01:26.570Z,12.50
2022-10-28T23:03:54.718Z,12.50
2022-10-28T23:06:25.073Z,12.50
2022-10-28T23:08:52.863Z,12.50
2022-10-28T23:11:21.715Z,12.40
2022-10-28T23:13:53.547Z,12.30
2022-10-28T23:16:22.465Z,12.30
2022-10-28T23:18:49.497Z,12.30
2022-10-28T23:21:20.060Z,12.30
2022-10-28T23:23:51.219Z,12.20
2022-10-28T23:26:21.775Z,12.20
2022-10-28T23:28:54.358Z,12.20
2022-10-28T23:31:22.429Z,12.30
2022-10-28T23:33:50.833Z,12.30
2022-10-28T23:36:18.276Z,12.20
2022-10-28T23:38:45.530Z,12.20
2022-10-28T23:41:18.076Z,12.20
2022-10-28T23:43:45.387Z,12.30
2022-10-28T23:46:12.535Z,12.20
2022-10-28T23:48:39.562Z,12.10
2022-10-28T23:51:07.161Z,12.00
2022-10-28T23:53:34.540Z,12.00
2022-10-28T23:56:01.580Z,12.00
2022-10-28T23:58:28.627Z,12.00
